sensor_id;sensor_type;location;lat;lon;timestamp;P1;durP1;ratioP1;P2;durP2;ratioP2
57309;SDS011;43153;50.984;18.204;2023-05-07T00:02:23;13.50;;;7.20;;
57309;SDS011;43153;50.984;18.204;2023-05-07T00:04:53;11.90;;;7.30;;
57309;SDS011;43153;50.984;18.204;2023-05-07T00:07:20;12.70;;;6.90;;
57309;SDS011;43153;50.984;18.204;2023-05-07T00:09:47;13.60;;;7.40;;
57309;SDS011;43153;50.984;18.204;2023-05-07T00:12:18;10.60;;;6.20;;
57309;SDS011;43153;50.984;18.204;2023-05-07T00:14:46;11.50;;;6.10;;
57309;SDS011;43153;50.984;18.204;2023-05-07T00:17:16;13.00;;;7.00;;
57309;SDS011;43153;50.984;18.204;2023-05-07T00:19:48;10.80;;;6.10;;
57309;SDS011;43153;50.984;18.204;2023-05-07T00:22:14;10.10;;;6.10;;
57309;SDS011;43153;50.984;18.204;2023-05-07T00:24:40;11.70;;;6.70;;
57309;SDS011;43153;50.984;18.204;2023-05-07T00:27:06;15.60;;;7.80;;
57309;SDS011;43153;50.984;18.204;2023-05-07T00:29:34;10.70;;;6.30;;
57309;SDS011;43153;50.984;18.204;2023-05-07T00:32:02;10.10;;;6.10;;
57309;SDS011;43153;50.984;18.204;2023-05-07T00:34:35;11.40;;;6.50;;
57309;SDS011;43153;50.984;18.204;2023-05-07T00:37:06;14.00;;;6.90;;
57309;SDS011;43153;50.984;18.204;2023-05-07T00:39:34;15.40;;;7.20;;
57309;SDS011;43153;50.984;18.204;2023-05-07T00:42:00;16.40;;;9.00;;
57309;SDS011;43153;50.984;18.204;2023-05-07T00:44:28;11.90;;;6.60;;
57309;SDS011;43153;50.984;18.204;2023-05-07T00:46:56;9.80;;;5.80;;
57309;SDS011;43153;50.984;18.204;2023-05-07T00:49:35;13.80;;;7.20;;
57309;SDS011;43153;50.984;18.204;2023-05-07T00:52:15;8.90;;;4.90;;
57309;SDS011;43153;50.984;18.204;2023-05-07T00:54:44;12.80;;;5.90;;
57309;SDS011;43153;50.984;18.204;2023-05-07T00:57:16;10.60;;;5.80;;
57309;SDS011;43153;50.984;18.204;2023-05-07T00:59:43;10.00;;;5.50;;
57309;SDS011;43153;50.984;18.204;2023-05-07T01:02:12;10.80;;;5.40;;
57309;SDS011;43153;50.984;18.204;2023-05-07T01:04:40;10.70;;;5.90;;
57309;SDS011;43153;50.984;18.204;2023-05-07T01:07:09;10.40;;;5.90;;
57309;SDS011;43153;50.984;18.204;2023-05-07T01:09:39;10.60;;;5.70;;
57309;SDS011;43153;50.984;18.204;2023-05-07T01:12:08;11.50;;;5.20;;
57309;SDS011;43153;50.984;18.204;2023-05-07T01:14:36;10.30;;;5.20;;
57309;SDS011;43153;50.984;18.204;2023-05-07T01:17:02;8.00;;;4.50;;
57309;SDS011;43153;50.984;18.204;2023-05-07T01:19:29;9.30;;;5.00;;
57309;SDS011;43153;50.984;18.204;2023-05-07T01:22:01;9.40;;;4.70;;
57309;SDS011;43153;50.984;18.204;2023-05-07T01:24:34;10.80;;;5.20;;
57309;SDS011;43153;50.984;18.204;2023-05-07T01:27:03;9.60;;;5.00;;
57309;SDS011;43153;50.984;18.204;2023-05-07T01:29:31;8.60;;;3.90;;
57309;SDS011;43153;50.984;18.204;2023-05-07T01:32:00;9.30;;;5.50;;
57309;SDS011;43153;50.984;18.204;2023-05-07T01:34:31;10.00;;;4.10;;
57309;SDS011;43153;50.984;18.204;2023-05-07T01:36:59;8.40;;;4.70;;
57309;SDS011;43153;50.984;18.204;2023-05-07T01:39:27;8.70;;;4.40;;
57309;SDS011;43153;50.984;18.204;2023-05-07T01:42:00;8.50;;;4.30;;
57309;SDS011;43153;50.984;18.204;2023-05-07T01:44:29;8.40;;;3.90;;
57309;SDS011;43153;50.984;18.204;2023-05-07T01:47:00;7.80;;;4.40;;
57309;SDS011;43153;50.984;18.204;2023-05-07T01:49:33;8.60;;;4.70;;
57309;SDS011;43153;50.984;18.204;2023-05-07T01:52:04;9.40;;;4.80;;
57309;SDS011;43153;50.984;18.204;2023-05-07T01:54:31;8.50;;;4.40;;
57309;SDS011;43153;50.984;18.204;2023-05-07T01:56:58;9.50;;;5.00;;
57309;SDS011;43153;50.984;18.204;2023-05-07T01:59:24;9.80;;;4.90;;
57309;SDS011;43153;50.984;18.204;2023-05-07T02:01:50;11.00;;;4.30;;
57309;SDS011;43153;50.984;18.204;2023-05-07T02:04:17;8.80;;;4.60;;
57309;SDS011;43153;50.984;18.204;2023-05-07T02:06:43;12.90;;;6.10;;
57309;SDS011;43153;50.984;18.204;2023-05-07T02:09:09;10.10;;;5.30;;
57309;SDS011;43153;50.984;18.204;2023-05-07T02:11:36;7.90;;;4.30;;
57309;SDS011;43153;50.984;18.204;2023-05-07T02:14:02;11.00;;;6.00;;
57309;SDS011;43153;50.984;18.204;2023-05-07T02:16:28;10.00;;;5.60;;
57309;SDS011;43153;50.984;18.204;2023-05-07T02:18:54;9.80;;;5.30;;
57309;SDS011;43153;50.984;18.204;2023-05-07T02:21:20;10.50;;;5.60;;
57309;SDS011;43153;50.984;18.204;2023-05-07T03:03:32;6.80;;;2.90;;
57309;SDS011;43153;50.984;18.204;2023-05-07T03:06:03;7.30;;;3.00;;
57309;SDS011;43153;50.984;18.204;2023-05-07T03:08:32;7.00;;;3.00;;
57309;SDS011;43153;50.984;18.204;2023-05-07T03:10:59;6.50;;;3.00;;
57309;SDS011;43153;50.984;18.204;2023-05-07T03:13:25;6.80;;;3.40;;
57309;SDS011;43153;50.984;18.204;2023-05-07T03:15:52;6.30;;;3.20;;
57309;SDS011;43153;50.984;18.204;2023-05-07T03:18:25;6.70;;;2.90;;
57309;SDS011;43153;50.984;18.204;2023-05-07T03:20:51;7.00;;;2.70;;
57309;SDS011;43153;50.984;18.204;2023-05-07T03:23:18;6.10;;;2.40;;
57309;SDS011;43153;50.984;18.204;2023-05-07T03:25:45;6.80;;;3.20;;
57309;SDS011;43153;50.984;18.204;2023-05-07T03:28:13;5.30;;;2.30;;
57309;SDS011;43153;50.984;18.204;2023-05-07T03:30:39;3.70;;;2.00;;
57309;SDS011;43153;50.984;18.204;2023-05-07T03:33:07;6.90;;;2.20;;
57309;SDS011;43153;50.984;18.204;2023-05-07T03:35:33;5.60;;;2.30;;
57309;SDS011;43153;50.984;18.204;2023-05-07T03:37:59;4.30;;;1.60;;
57309;SDS011;43153;50.984;18.204;2023-05-07T03:40:25;6.60;;;1.70;;
57309;SDS011;43153;50.984;18.204;2023-05-07T03:42:51;4.30;;;1.30;;
57309;SDS011;43153;50.984;18.204;2023-05-07T03:45:17;3.70;;;1.50;;
57309;SDS011;43153;50.984;18.204;2023-05-07T03:47:44;5.40;;;2.10;;
57309;SDS011;43153;50.984;18.204;2023-05-07T03:50:10;8.40;;;2.10;;
57309;SDS011;43153;50.984;18.204;2023-05-07T03:52:37;4.00;;;1.60;;
57309;SDS011;43153;50.984;18.204;2023-05-07T03:55:04;5.80;;;2.00;;
57309;SDS011;43153;50.984;18.204;2023-05-07T03:57:31;5.60;;;2.10;;
57309;SDS011;43153;50.984;18.204;2023-05-07T03:59:58;7.50;;;2.60;;
57309;SDS011;43153;50.984;18.204;2023-05-07T04:02:24;5.10;;;2.10;;
57309;SDS011;43153;50.984;18.204;2023-05-07T04:04:52;8.80;;;2.70;;
57309;SDS011;43153;50.984;18.204;2023-05-07T04:07:19;7.20;;;3.60;;
57309;SDS011;43153;50.984;18.204;2023-05-07T04:09:46;5.80;;;2.60;;
57309;SDS011;43153;50.984;18.204;2023-05-07T04:12:12;8.60;;;3.90;;
57309;SDS011;43153;50.984;18.204;2023-05-07T04:14:38;8.40;;;4.00;;
57309;SDS011;43153;50.984;18.204;2023-05-07T04:17:06;8.20;;;3.50;;
57309;SDS011;43153;50.984;18.204;2023-05-07T04:19:35;6.10;;;3.40;;
57309;SDS011;43153;50.984;18.204;2023-05-07T04:22:01;7.80;;;2.90;;
57309;SDS011;43153;50.984;18.204;2023-05-07T04:24:30;7.10;;;3.60;;
57309;SDS011;43153;50.984;18.204;2023-05-07T04:27:00;8.00;;;3.30;;
57309;SDS011;43153;50.984;18.204;2023-05-07T04:29:27;6.50;;;2.90;;
57309;SDS011;43153;50.984;18.204;2023-05-07T04:31:53;6.60;;;2.60;;
57309;SDS011;43153;50.984;18.204;2023-05-07T04:34:23;6.20;;;2.80;;
57309;SDS011;43153;50.984;18.204;2023-05-07T04:36:50;6.50;;;2.20;;
57309;SDS011;43153;50.984;18.204;2023-05-07T04:39:17;4.50;;;2.00;;
57309;SDS011;43153;50.984;18.204;2023-05-07T04:41:43;5.70;;;2.00;;
57309;SDS011;43153;50.984;18.204;2023-05-07T04:44:12;5.00;;;1.90;;
57309;SDS011;43153;50.984;18.204;2023-05-07T04:46:38;5.60;;;1.80;;
57309;SDS011;43153;50.984;18.204;2023-05-07T04:49:04;6.00;;;2.40;;
57309;SDS011;43153;50.984;18.204;2023-05-07T04:51:32;6.50;;;2.40;;
57309;SDS011;43153;50.984;18.204;2023-05-07T04:53:59;3.60;;;1.80;;
57309;SDS011;43153;50.984;18.204;2023-05-07T04:56:27;4.90;;;1.80;;
57309;SDS011;43153;50.984;18.204;2023-05-07T04:58:57;4.80;;;2.30;;
57309;SDS011;43153;50.984;18.204;2023-05-07T05:01:29;3.90;;;1.70;;
57309;SDS011;43153;50.984;18.204;2023-05-07T05:03:56;4.80;;;1.90;;
57309;SDS011;43153;50.984;18.204;2023-05-07T05:06:26;3.60;;;1.60;;
57309;SDS011;43153;50.984;18.204;2023-05-07T05:09:04;4.20;;;1.70;;
57309;SDS011;43153;50.984;18.204;2023-05-07T05:11:32;4.80;;;2.00;;
57309;SDS011;43153;50.984;18.204;2023-05-07T05:13:59;4.00;;;1.80;;
57309;SDS011;43153;50.984;18.204;2023-05-07T05:16:27;3.90;;;1.80;;
57309;SDS011;43153;50.984;18.204;2023-05-07T05:18:54;5.20;;;1.90;;
57309;SDS011;43153;50.984;18.204;2023-05-07T05:21:20;6.40;;;2.00;;
57309;SDS011;43153;50.984;18.204;2023-05-07T05:23:49;4.70;;;1.90;;
57309;SDS011;43153;50.984;18.204;2023-05-07T05:26:16;7.90;;;2.80;;
57309;SDS011;43153;50.984;18.204;2023-05-07T05:28:42;4.50;;;2.00;;
57309;SDS011;43153;50.984;18.204;2023-05-07T05:31:09;6.90;;;2.20;;
57309;SDS011;43153;50.984;18.204;2023-05-07T05:33:37;6.50;;;2.50;;
57309;SDS011;43153;50.984;18.204;2023-05-07T05:36:04;5.40;;;1.70;;
57309;SDS011;43153;50.984;18.204;2023-05-07T05:38:37;7.20;;;2.10;;
57309;SDS011;43153;50.984;18.204;2023-05-07T05:41:04;3.30;;;1.80;;
57309;SDS011;43153;50.984;18.204;2023-05-07T05:43:32;3.80;;;1.30;;
57309;SDS011;43153;50.984;18.204;2023-05-07T05:45:58;5.50;;;1.60;;
57309;SDS011;43153;50.984;18.204;2023-05-07T05:48:26;4.00;;;1.50;;
57309;SDS011;43153;50.984;18.204;2023-05-07T05:50:54;4.90;;;1.60;;
57309;SDS011;43153;50.984;18.204;2023-05-07T05:53:21;5.20;;;1.40;;
57309;SDS011;43153;50.984;18.204;2023-05-07T05:55:50;4.40;;;1.50;;
57309;SDS011;43153;50.984;18.204;2023-05-07T05:58:17;3.60;;;1.20;;
57309;SDS011;43153;50.984;18.204;2023-05-07T06:00:46;4.70;;;1.20;;
57309;SDS011;43153;50.984;18.204;2023-05-07T06:03:14;3.80;;;1.20;;
57309;SDS011;43153;50.984;18.204;2023-05-07T06:05:42;2.80;;;0.90;;
57309;SDS011;43153;50.984;18.204;2023-05-07T06:08:12;3.40;;;1.20;;
57309;SDS011;43153;50.984;18.204;2023-05-07T06:10:41;3.60;;;1.20;;
57309;SDS011;43153;50.984;18.204;2023-05-07T06:13:09;5.10;;;1.60;;
57309;SDS011;43153;50.984;18.204;2023-05-07T06:15:36;4.60;;;1.20;;
57309;SDS011;43153;50.984;18.204;2023-05-07T06:18:03;4.30;;;1.40;;
57309;SDS011;43153;50.984;18.204;2023-05-07T06:20:29;3.70;;;1.30;;
57309;SDS011;43153;50.984;18.204;2023-05-07T06:22:55;4.40;;;1.60;;
57309;SDS011;43153;50.984;18.204;2023-05-07T06:25:26;3.00;;;1.10;;
57309;SDS011;43153;50.984;18.204;2023-05-07T06:27:55;2.80;;;1.20;;
57309;SDS011;43153;50.984;18.204;2023-05-07T06:30:23;4.40;;;1.80;;
57309;SDS011;43153;50.984;18.204;2023-05-07T06:32:50;6.40;;;2.00;;
57309;SDS011;43153;50.984;18.204;2023-05-07T06:35:18;5.10;;;2.10;;
57309;SDS011;43153;50.984;18.204;2023-05-07T06:37:44;4.20;;;2.00;;
57309;SDS011;43153;50.984;18.204;2023-05-07T06:40:11;4.70;;;1.70;;
57309;SDS011;43153;50.984;18.204;2023-05-07T06:42:37;6.10;;;2.10;;
57309;SDS011;43153;50.984;18.204;2023-05-07T06:45:05;4.10;;;1.60;;
57309;SDS011;43153;50.984;18.204;2023-05-07T06:47:38;6.70;;;2.40;;
57309;SDS011;43153;50.984;18.204;2023-05-07T06:50:05;5.90;;;2.00;;
57309;SDS011;43153;50.984;18.204;2023-05-07T06:52:34;6.30;;;2.70;;
57309;SDS011;43153;50.984;18.204;2023-05-07T06:55:09;6.70;;;2.80;;
57309;SDS011;43153;50.984;18.204;2023-05-07T06:57:37;6.10;;;2.00;;
57309;SDS011;43153;50.984;18.204;2023-05-07T07:00:07;5.30;;;2.30;;
57309;SDS011;43153;50.984;18.204;2023-05-07T07:02:36;6.90;;;2.80;;
57309;SDS011;43153;50.984;18.204;2023-05-07T07:05:02;8.00;;;2.50;;
57309;SDS011;43153;50.984;18.204;2023-05-07T07:07:29;5.30;;;2.20;;
57309;SDS011;43153;50.984;18.204;2023-05-07T07:09:55;7.30;;;2.30;;
57309;SDS011;43153;50.984;18.204;2023-05-07T07:12:22;7.10;;;2.40;;
57309;SDS011;43153;50.984;18.204;2023-05-07T07:14:51;7.60;;;2.40;;
57309;SDS011;43153;50.984;18.204;2023-05-07T07:17:20;6.10;;;2.50;;
57309;SDS011;43153;50.984;18.204;2023-05-07T07:19:50;7.10;;;2.80;;
57309;SDS011;43153;50.984;18.204;2023-05-07T07:22:23;6.40;;;2.50;;
57309;SDS011;43153;50.984;18.204;2023-05-07T07:24:49;4.80;;;2.10;;
57309;SDS011;43153;50.984;18.204;2023-05-07T07:27:16;5.00;;;2.00;;
57309;SDS011;43153;50.984;18.204;2023-05-07T07:29:45;5.00;;;2.30;;
57309;SDS011;43153;50.984;18.204;2023-05-07T07:32:12;5.00;;;2.00;;
57309;SDS011;43153;50.984;18.204;2023-05-07T07:34:38;5.30;;;2.20;;
57309;SDS011;43153;50.984;18.204;2023-05-07T07:37:06;4.00;;;1.70;;
57309;SDS011;43153;50.984;18.204;2023-05-07T07:39:32;4.40;;;1.60;;
57309;SDS011;43153;50.984;18.204;2023-05-07T07:42:01;6.70;;;2.30;;
57309;SDS011;43153;50.984;18.204;2023-05-07T07:44:30;6.70;;;2.10;;
57309;SDS011;43153;50.984;18.204;2023-05-07T07:47:01;5.10;;;1.80;;
57309;SDS011;43153;50.984;18.204;2023-05-07T07:51:58;11.30;;;2.40;;
57309;SDS011;43153;50.984;18.204;2023-05-07T07:54:25;5.20;;;2.40;;
57309;SDS011;43153;50.984;18.204;2023-05-07T07:56:51;5.50;;;1.60;;
57309;SDS011;43153;50.984;18.204;2023-05-07T07:59:17;6.60;;;2.30;;
57309;SDS011;43153;50.984;18.204;2023-05-07T08:01:45;5.30;;;2.10;;
57309;SDS011;43153;50.984;18.204;2023-05-07T08:04:17;6.90;;;2.40;;
57309;SDS011;43153;50.984;18.204;2023-05-07T08:06:46;5.60;;;1.70;;
57309;SDS011;43153;50.984;18.204;2023-05-07T08:09:13;4.00;;;1.80;;
57309;SDS011;43153;50.984;18.204;2023-05-07T08:11:42;4.50;;;2.00;;
57309;SDS011;43153;50.984;18.204;2023-05-07T08:14:09;6.00;;;2.80;;
57309;SDS011;43153;50.984;18.204;2023-05-07T08:16:36;7.90;;;2.40;;
57309;SDS011;43153;50.984;18.204;2023-05-07T08:19:03;6.90;;;2.80;;
57309;SDS011;43153;50.984;18.204;2023-05-07T08:21:29;4.90;;;2.50;;
57309;SDS011;43153;50.984;18.204;2023-05-07T08:23:56;5.50;;;2.30;;
57309;SDS011;43153;50.984;18.204;2023-05-07T08:26:22;5.80;;;2.30;;
57309;SDS011;43153;50.984;18.204;2023-05-07T08:28:49;5.00;;;2.00;;
57309;SDS011;43153;50.984;18.204;2023-05-07T08:31:15;5.30;;;2.40;;
57309;SDS011;43153;50.984;18.204;2023-05-07T08:33:43;5.60;;;2.50;;
57309;SDS011;43153;50.984;18.204;2023-05-07T08:36:10;4.50;;;2.00;;
57309;SDS011;43153;50.984;18.204;2023-05-07T08:38:37;5.60;;;2.40;;
57309;SDS011;43153;50.984;18.204;2023-05-07T08:41:06;5.40;;;2.00;;
57309;SDS011;43153;50.984;18.204;2023-05-07T08:43:33;7.40;;;2.30;;
57309;SDS011;43153;50.984;18.204;2023-05-07T08:46:01;5.60;;;2.10;;
57309;SDS011;43153;50.984;18.204;2023-05-07T08:48:28;5.10;;;2.30;;
57309;SDS011;43153;50.984;18.204;2023-05-07T08:50:55;5.10;;;2.20;;
57309;SDS011;43153;50.984;18.204;2023-05-07T09:33:28;4.20;;;1.40;;
57309;SDS011;43153;50.984;18.204;2023-05-07T09:36:03;4.60;;;1.30;;
57309;SDS011;43153;50.984;18.204;2023-05-07T09:38:35;3.10;;;1.10;;
57309;SDS011;43153;50.984;18.204;2023-05-07T09:41:10;3.00;;;1.20;;
57309;SDS011;43153;50.984;18.204;2023-05-07T09:43:40;4.30;;;1.60;;
57309;SDS011;43153;50.984;18.204;2023-05-07T09:46:10;4.10;;;1.10;;
57309;SDS011;43153;50.984;18.204;2023-05-07T09:48:43;3.10;;;1.10;;
57309;SDS011;43153;50.984;18.204;2023-05-07T09:51:15;4.00;;;1.30;;
57309;SDS011;43153;50.984;18.204;2023-05-07T09:53:48;5.30;;;1.30;;
57309;SDS011;43153;50.984;18.204;2023-05-07T09:56:16;5.20;;;1.60;;
57309;SDS011;43153;50.984;18.204;2023-05-07T09:58:45;3.40;;;1.30;;
57309;SDS011;43153;50.984;18.204;2023-05-07T10:01:12;3.40;;;1.50;;
57309;SDS011;43153;50.984;18.204;2023-05-07T10:03:40;3.90;;;1.50;;
57309;SDS011;43153;50.984;18.204;2023-05-07T10:06:13;5.40;;;1.50;;
57309;SDS011;43153;50.984;18.204;2023-05-07T10:08:41;5.80;;;1.60;;
57309;SDS011;43153;50.984;18.204;2023-05-07T10:11:12;4.60;;;1.70;;
57309;SDS011;43153;50.984;18.204;2023-05-07T10:13:41;6.10;;;2.20;;
57309;SDS011;43153;50.984;18.204;2023-05-07T10:16:11;5.30;;;1.90;;
57309;SDS011;43153;50.984;18.204;2023-05-07T10:18:40;4.00;;;1.60;;
57309;SDS011;43153;50.984;18.204;2023-05-07T10:21:12;7.80;;;2.50;;
57309;SDS011;43153;50.984;18.204;2023-05-07T10:23:45;4.40;;;1.50;;
57309;SDS011;43153;50.984;18.204;2023-05-07T10:26:15;3.50;;;1.20;;
57309;SDS011;43153;50.984;18.204;2023-05-07T10:28:44;4.50;;;1.50;;
57309;SDS011;43153;50.984;18.204;2023-05-07T10:33:57;5.50;;;1.60;;
57309;SDS011;43153;50.984;18.204;2023-05-07T10:36:25;3.80;;;1.60;;
57309;SDS011;43153;50.984;18.204;2023-05-07T10:38:54;5.40;;;1.50;;
57309;SDS011;43153;50.984;18.204;2023-05-07T10:41:20;4.80;;;1.60;;
57309;SDS011;43153;50.984;18.204;2023-05-07T10:43:49;5.10;;;1.70;;
57309;SDS011;43153;50.984;18.204;2023-05-07T10:46:16;5.10;;;1.70;;
57309;SDS011;43153;50.984;18.204;2023-05-07T10:51:32;5.90;;;2.00;;
57309;SDS011;43153;50.984;18.204;2023-05-07T10:56:40;4.90;;;2.10;;
57309;SDS011;43153;50.984;18.204;2023-05-07T11:04:24;4.70;;;2.00;;
57309;SDS011;43153;50.984;18.204;2023-05-07T11:12:46;5.30;;;1.70;;
57309;SDS011;43153;50.984;18.204;2023-05-07T11:15:05;4.90;;;1.90;;
57309;SDS011;43153;50.984;18.204;2023-05-07T11:17:33;4.10;;;1.60;;
57309;SDS011;43153;50.984;18.204;2023-05-07T11:20:03;5.10;;;2.10;;
57309;SDS011;43153;50.984;18.204;2023-05-07T11:25:03;5.90;;;2.20;;
57309;SDS011;43153;50.984;18.204;2023-05-07T11:27:30;5.70;;;2.00;;
57309;SDS011;43153;50.984;18.204;2023-05-07T11:29:57;9.40;;;2.70;;
57309;SDS011;43153;50.984;18.204;2023-05-07T11:32:31;5.60;;;2.40;;
57309;SDS011;43153;50.984;18.204;2023-05-07T11:34:59;4.90;;;2.00;;
57309;SDS011;43153;50.984;18.204;2023-05-07T11:37:27;5.30;;;2.20;;
57309;SDS011;43153;50.984;18.204;2023-05-07T11:40:04;7.90;;;3.00;;
57309;SDS011;43153;50.984;18.204;2023-05-07T11:42:38;7.00;;;2.90;;
57309;SDS011;43153;50.984;18.204;2023-05-07T11:45:06;5.80;;;2.60;;
57309;SDS011;43153;50.984;18.204;2023-05-07T11:47:33;7.50;;;3.20;;
57309;SDS011;43153;50.984;18.204;2023-05-07T11:50:04;6.00;;;2.30;;
57309;SDS011;43153;50.984;18.204;2023-05-07T11:52:32;5.80;;;2.40;;
57309;SDS011;43153;50.984;18.204;2023-05-07T11:55:00;5.90;;;3.00;;
57309;SDS011;43153;50.984;18.204;2023-05-07T11:57:27;7.70;;;3.50;;
57309;SDS011;43153;50.984;18.204;2023-05-07T11:59:54;6.90;;;3.20;;
57309;SDS011;43153;50.984;18.204;2023-05-07T12:02:21;9.40;;;3.80;;
57309;SDS011;43153;50.984;18.204;2023-05-07T12:04:49;7.90;;;3.40;;
57309;SDS011;43153;50.984;18.204;2023-05-07T12:07:15;6.60;;;2.70;;
57309;SDS011;43153;50.984;18.204;2023-05-07T12:09:42;8.20;;;3.20;;
57309;SDS011;43153;50.984;18.204;2023-05-07T12:12:09;7.60;;;3.60;;
57309;SDS011;43153;50.984;18.204;2023-05-07T12:14:38;8.80;;;3.40;;
57309;SDS011;43153;50.984;18.204;2023-05-07T12:17:05;7.40;;;2.90;;
57309;SDS011;43153;50.984;18.204;2023-05-07T12:19:34;9.10;;;3.50;;
57309;SDS011;43153;50.984;18.204;2023-05-07T12:22:04;7.40;;;3.40;;
57309;SDS011;43153;50.984;18.204;2023-05-07T12:24:50;7.40;;;3.50;;
57309;SDS011;43153;50.984;18.204;2023-05-07T12:29:49;5.40;;;2.60;;
57309;SDS011;43153;50.984;18.204;2023-05-07T12:32:17;7.10;;;2.70;;
57309;SDS011;43153;50.984;18.204;2023-05-07T12:34:46;7.10;;;3.20;;
57309;SDS011;43153;50.984;18.204;2023-05-07T12:37:15;7.50;;;3.40;;
57309;SDS011;43153;50.984;18.204;2023-05-07T12:39:47;7.90;;;3.80;;
57309;SDS011;43153;50.984;18.204;2023-05-07T12:42:20;7.10;;;2.90;;
57309;SDS011;43153;50.984;18.204;2023-05-07T12:44:51;7.00;;;2.70;;
57309;SDS011;43153;50.984;18.204;2023-05-07T12:47:23;8.80;;;2.70;;
57309;SDS011;43153;50.984;18.204;2023-05-07T12:49:49;6.50;;;2.90;;
57309;SDS011;43153;50.984;18.204;2023-05-07T12:52:15;6.60;;;2.90;;
57309;SDS011;43153;50.984;18.204;2023-05-07T12:54:41;6.20;;;3.10;;
57309;SDS011;43153;50.984;18.204;2023-05-07T12:57:09;5.70;;;2.30;;
57309;SDS011;43153;50.984;18.204;2023-05-07T12:59:36;5.50;;;2.70;;
57309;SDS011;43153;50.984;18.204;2023-05-07T13:02:03;8.40;;;3.80;;
57309;SDS011;43153;50.984;18.204;2023-05-07T13:04:30;6.80;;;3.30;;
57309;SDS011;43153;50.984;18.204;2023-05-07T13:06:58;5.50;;;2.50;;
57309;SDS011;43153;50.984;18.204;2023-05-07T13:09:25;7.40;;;3.40;;
57309;SDS011;43153;50.984;18.204;2023-05-07T13:11:52;8.10;;;3.60;;
57309;SDS011;43153;50.984;18.204;2023-05-07T13:14:18;9.10;;;3.50;;
57309;SDS011;43153;50.984;18.204;2023-05-07T13:16:47;8.80;;;3.80;;
57309;SDS011;43153;50.984;18.204;2023-05-07T13:19:14;9.10;;;4.00;;
57309;SDS011;43153;50.984;18.204;2023-05-07T13:21:42;8.20;;;3.80;;
57309;SDS011;43153;50.984;18.204;2023-05-07T13:24:11;6.60;;;3.40;;
57309;SDS011;43153;50.984;18.204;2023-05-07T13:26:37;7.30;;;3.80;;
57309;SDS011;43153;50.984;18.204;2023-05-07T13:29:03;9.40;;;3.70;;
57309;SDS011;43153;50.984;18.204;2023-05-07T13:31:29;9.60;;;4.10;;
57309;SDS011;43153;50.984;18.204;2023-05-07T13:34:01;8.20;;;3.40;;
57309;SDS011;43153;50.984;18.204;2023-05-07T13:36:27;8.30;;;3.60;;
57309;SDS011;43153;50.984;18.204;2023-05-07T13:38:54;9.10;;;3.40;;
57309;SDS011;43153;50.984;18.204;2023-05-07T13:41:20;8.90;;;3.70;;
57309;SDS011;43153;50.984;18.204;2023-05-07T13:43:46;10.80;;;4.80;;
57309;SDS011;43153;50.984;18.204;2023-05-07T13:46:12;9.30;;;4.10;;
57309;SDS011;43153;50.984;18.204;2023-05-07T13:48:40;11.10;;;5.00;;
57309;SDS011;43153;50.984;18.204;2023-05-07T13:51:10;9.40;;;3.90;;
57309;SDS011;43153;50.984;18.204;2023-05-07T13:53:37;7.50;;;3.30;;
57309;SDS011;43153;50.984;18.204;2023-05-07T13:56:07;7.90;;;4.10;;
57309;SDS011;43153;50.984;18.204;2023-05-07T13:58:33;8.20;;;4.20;;
57309;SDS011;43153;50.984;18.204;2023-05-07T14:00:59;7.70;;;3.90;;
57309;SDS011;43153;50.984;18.204;2023-05-07T14:03:25;6.40;;;3.20;;
57309;SDS011;43153;50.984;18.204;2023-05-07T14:05:51;6.20;;;3.20;;
57309;SDS011;43153;50.984;18.204;2023-05-07T14:08:17;9.00;;;3.60;;
57309;SDS011;43153;50.984;18.204;2023-05-07T14:10:45;9.80;;;3.40;;
57309;SDS011;43153;50.984;18.204;2023-05-07T14:13:11;10.50;;;4.10;;
57309;SDS011;43153;50.984;18.204;2023-05-07T14:15:37;10.10;;;4.00;;
57309;SDS011;43153;50.984;18.204;2023-05-07T14:18:12;7.40;;;3.50;;
57309;SDS011;43153;50.984;18.204;2023-05-07T14:20:39;8.70;;;3.50;;
57309;SDS011;43153;50.984;18.204;2023-05-07T14:23:06;7.10;;;3.20;;
57309;SDS011;43153;50.984;18.204;2023-05-07T14:25:36;9.70;;;3.40;;
57309;SDS011;43153;50.984;18.204;2023-05-07T14:28:04;5.70;;;3.00;;
57309;SDS011;43153;50.984;18.204;2023-05-07T14:30:31;6.80;;;3.30;;
57309;SDS011;43153;50.984;18.204;2023-05-07T14:32:58;8.10;;;3.60;;
57309;SDS011;43153;50.984;18.204;2023-05-07T14:35:24;8.90;;;3.40;;
57309;SDS011;43153;50.984;18.204;2023-05-07T14:37:53;7.20;;;4.00;;
57309;SDS011;43153;50.984;18.204;2023-05-07T14:40:19;8.40;;;3.90;;
57309;SDS011;43153;50.984;18.204;2023-05-07T14:42:45;5.70;;;2.90;;
57309;SDS011;43153;50.984;18.204;2023-05-07T14:45:11;6.30;;;3.20;;
57309;SDS011;43153;50.984;18.204;2023-05-07T14:47:45;7.20;;;3.60;;
57309;SDS011;43153;50.984;18.204;2023-05-07T14:50:12;7.30;;;3.40;;
57309;SDS011;43153;50.984;18.204;2023-05-07T14:52:43;7.10;;;3.40;;
57309;SDS011;43153;50.984;18.204;2023-05-07T14:55:10;8.10;;;2.80;;
57309;SDS011;43153;50.984;18.204;2023-05-07T14:57:35;7.70;;;3.90;;
57309;SDS011;43153;50.984;18.204;2023-05-07T15:00:03;9.10;;;4.10;;
57309;SDS011;43153;50.984;18.204;2023-05-07T15:02:33;8.20;;;3.70;;
57309;SDS011;43153;50.984;18.204;2023-05-07T15:05:00;8.40;;;3.90;;
57309;SDS011;43153;50.984;18.204;2023-05-07T15:07:26;8.50;;;3.90;;
57309;SDS011;43153;50.984;18.204;2023-05-07T15:09:53;7.00;;;3.40;;
57309;SDS011;43153;50.984;18.204;2023-05-07T15:12:19;8.40;;;4.30;;
57309;SDS011;43153;50.984;18.204;2023-05-07T15:14:46;9.40;;;3.90;;
57309;SDS011;43153;50.984;18.204;2023-05-07T15:17:13;9.10;;;3.70;;
57309;SDS011;43153;50.984;18.204;2023-05-07T15:19:41;8.80;;;3.70;;
57309;SDS011;43153;50.984;18.204;2023-05-07T15:22:07;8.10;;;3.80;;
57309;SDS011;43153;50.984;18.204;2023-05-07T16:02:08;11.80;;;3.40;;
57309;SDS011;43153;50.984;18.204;2023-05-07T16:04:34;10.50;;;3.60;;
57309;SDS011;43153;50.984;18.204;2023-05-07T16:07:00;8.40;;;3.50;;
57309;SDS011;43153;50.984;18.204;2023-05-07T16:09:28;11.60;;;4.40;;
57309;SDS011;43153;50.984;18.204;2023-05-07T16:11:55;8.70;;;3.50;;
57309;SDS011;43153;50.984;18.204;2023-05-07T16:14:22;10.40;;;4.30;;
57309;SDS011;43153;50.984;18.204;2023-05-07T16:16:48;8.20;;;3.60;;
57309;SDS011;43153;50.984;18.204;2023-05-07T16:19:16;9.90;;;4.30;;
57309;SDS011;43153;50.984;18.204;2023-05-07T16:21:44;9.30;;;3.90;;
57309;SDS011;43153;50.984;18.204;2023-05-07T16:24:11;10.40;;;4.30;;
57309;SDS011;43153;50.984;18.204;2023-05-07T16:26:38;6.90;;;3.20;;
57309;SDS011;43153;50.984;18.204;2023-05-07T16:29:05;9.10;;;3.50;;
57309;SDS011;43153;50.984;18.204;2023-05-07T16:31:32;6.20;;;2.30;;
57309;SDS011;43153;50.984;18.204;2023-05-07T16:33:58;7.50;;;3.10;;
57309;SDS011;43153;50.984;18.204;2023-05-07T16:36:27;9.40;;;3.40;;
57309;SDS011;43153;50.984;18.204;2023-05-07T16:38:55;6.90;;;2.90;;
57309;SDS011;43153;50.984;18.204;2023-05-07T16:41:21;7.80;;;3.00;;
57309;SDS011;43153;50.984;18.204;2023-05-07T16:43:48;7.80;;;3.30;;
57309;SDS011;43153;50.984;18.204;2023-05-07T16:46:13;13.20;;;3.90;;
57309;SDS011;43153;50.984;18.204;2023-05-07T16:48:41;7.30;;;3.10;;
57309;SDS011;43153;50.984;18.204;2023-05-07T16:51:08;7.70;;;3.50;;
57309;SDS011;43153;50.984;18.204;2023-05-07T16:53:35;8.80;;;3.50;;
57309;SDS011;43153;50.984;18.204;2023-05-07T16:56:05;12.80;;;5.10;;
57309;SDS011;43153;50.984;18.204;2023-05-07T16:58:33;10.70;;;4.50;;
57309;SDS011;43153;50.984;18.204;2023-05-07T17:01:02;11.30;;;5.30;;
57309;SDS011;43153;50.984;18.204;2023-05-07T17:03:30;8.40;;;3.50;;